Etusivu
METAR-TAF:

METAR-TAF

Lentoasemat :

Albuquerque, New Mexico, Yhdysvallat

Leveyspiiri: 35-02-30N, Pituuspiiri: 106-36-53W, korkeus merenpinnasta: 1631 m

Tämänhetkinen sää

Tämä raportti tehtiin 51 minuuttia sitten, kello 11.52 UTC
Tuuli 3 kn idästä/koillisesta
Lämpötila 3°C
Kosteus 52%
Ilmanpaine 1028 hPa
Näkyvyys: 16.1 km
Muutamia pilviä 20000 ft:n korkeudessa

METAR: KABQ 151152Z 06003KT 10SM FEW200 03/M06 A3036 RMK AO2 SLP259 T00281056 10067 20022 53002

Aika: 05:43 (12:43 UTC)

Sääennuste

Tämä raportti tehtiin 1 tunti ja 20 minuuttia sitten, kello 11.23 UTC
Ennuste voimassa 15. päivästä klo 12 UTC - 16. päivään klo 12 UTC
Tuuli 5 kn eri suunnista
Näkyvyys: 10 km
Hajonneita pilviä 25000 ft:n korkeudessa

TAF: KABQ 151123Z 1512/1612 VRB05KT P6SM BKN250

Säähavainnot ja -ennusteet yli 4000 lentoasemalta (METAR- ja TAF-raportit).

Käytössä olevat sääasemat on merkitty karttaan keltaisilla ja punaisilla pisteillä.

Aseta hiiri pisteen päälle nähdäksesi sääaseman nimen.

Klikkaa sitten nähdäksesi säähavainnot ja -ennusteet.

Kartan vaihtaminen: klikkaa mustalla rastilla varustettuja vihreitä pisteitä, niin voit zoomata sisään; viivalla varustettua vihreää pistettä, niin voit zoomata ulos tai vihreitä nuolia, niin pääset viereisille kartoille.


METAR-TAF: